Time;durP1;ratioP1;P1;durP2;ratioP2;P2;SDS_P1;SDS_P2;PMS_P1;PMS_P2;Temp;Humidity;BMP_temperature;BMP_pressure;BME280_temperature;BME280_humidity;BME280_pressure;Samples;Min_cycle;Max_cycle;Signal;HPM_P1;HPM_P2
2021/09/15 00:01:24;;;;;;;6.45;3.30;;;;;;;27.25;48.69;100865.78;4993719;28;20364;-59
2021/09/15 00:03:50;;;;;;;5.75;3.38;;;;;;;27.23;48.82;100865.16;4994042;28;20184;-62
2021/09/15 00:06:15;;;;;;;4.95;3.20;;;;;;;27.21;48.88;100867.31;4993980;28;20487;-62
2021/09/15 00:08:40;;;;;;;6.40;3.70;;;;;;;27.19;48.88;100864.81;4993824;28;20049;-59
2021/09/15 00:11:06;;;;;;;5.85;3.33;;;;;;;27.19;48.28;100860.13;4993778;28;20525;-60
2021/09/15 00:13:32;;;;;;;5.85;4.05;;;;;;;27.16;48.33;100854.28;4976777;28;20042;-59
2021/09/15 00:15:58;;;;;;;6.15;3.35;;;;;;;27.17;48.49;100854.03;4993886;28;20041;-59
2021/09/15 00:18:23;;;;;;;6.15;3.80;;;;;;;27.21;48.93;100857.16;4992303;28;20027;-59
2021/09/15 00:20:49;;;;;;;5.03;3.67;;;;;;;27.19;48.95;100860.13;4992471;28;20379;-59
2021/09/15 00:23:14;;;;;;;6.03;3.38;;;;;;;27.21;48.98;100856.31;4993745;28;20073;-59
2021/09/15 00:25:40;;;;;;;5.10;3.80;;;;;;;27.21;48.67;100853.56;4993516;28;20019;-59
2021/09/15 00:28:05;;;;;;;7.45;4.28;;;;;;;27.21;48.36;100857.16;4993514;28;20018;-59
2021/09/15 00:30:30;;;;;;;7.90;4.53;;;;;;;27.21;48.96;100845.28;4994276;28;20049;-59
2021/09/15 00:32:56;;;;;;;7.90;4.20;;;;;;;27.22;49.01;100846.97;4997170;28;20026;-62
2021/09/15 00:35:21;;;;;;;10.02;3.50;;;;;;;27.22;49.21;100846.97;4996954;28;20027;-61
2021/09/15 00:37:46;;;;;;;7.95;4.30;;;;;;;27.22;49.05;100847.78;4996696;28;20069;-58
2021/09/15 00:40:12;;;;;;;6.90;3.83;;;;;;;27.23;48.58;100843.13;4996965;28;20432;-59
2021/09/15 00:42:37;;;;;;;6.55;4.07;;;;;;;27.23;48.93;100837.63;4996767;28;20053;-59
2021/09/15 00:45:03;;;;;;;7.38;4.43;;;;;;;27.25;48.47;100841.81;4997221;28;20022;-59
2021/09/15 00:47:29;;;;;;;9.20;3.97;;;;;;;27.25;48.47;100833.56;4996894;28;20026;-59
2021/09/15 00:49:54;;;;;;;5.75;3.70;;;;;;;27.23;49.16;100827.47;4996632;28;20114;-59
2021/09/15 00:52:20;;;;;;;5.18;4.38;;;;;;;27.24;49.01;100825.56;4996425;28;20524;-59
2021/09/15 00:54:46;;;;;;;8.45;4.30;;;;;;;27.21;48.88;100826.03;4996484;28;20062;-59
2021/09/15 00:57:11;;;;;;;6.78;4.68;;;;;;;27.16;48.43;100819.31;4995526;28;20092;-59
2021/09/15 00:59:36;;;;;;;7.93;4.00;;;;;;;27.15;48.69;100814.91;4996339;28;20034;-59
2021/09/15 01:02:02;;;;;;;5.53;3.90;;;;;;;27.13;48.86;100817.06;4996888;28;20114;-59
2021/09/15 01:04:27;;;;;;;5.13;3.40;;;;;;;27.17;48.86;100812.75;4996443;28;20034;-61
2021/09/15 01:06:53;;;;;;;6.57;4.07;;;;;;;27.19;49.04;100809.78;4996239;28;20038;-59
2021/09/15 01:09:19;;;;;;;7.85;4.07;;;;;;;27.17;48.61;100810.00;4995183;28;20077;-62
2021/09/15 01:11:45;;;;;;;5.15;4.03;;;;;;;27.18;48.98;100808.94;4996521;28;20027;-62
2021/09/15 01:14:10;;;;;;;6.15;3.85;;;;;;;27.18;48.80;100814.44;4996402;28;20057;-59
2021/09/15 01:16:59;;;;;;;6.57;3.75;;;;;;;27.17;49.30;100807.25;4995178;28;20026;-59
2021/09/15 01:19:25;;;;;;;7.60;4.30;;;;;;;27.15;48.87;100795.66;4996406;28;20031;-60
2021/09/15 01:21:52;;;;;;;5.10;3.42;;;;;;;27.14;48.98;100795.88;4978966;28;20046;-59
2021/09/15 01:24:17;;;;;;;5.28;3.58;;;;;;;27.13;49.51;100797.81;4996237;28;20113;-60
2021/09/15 01:26:43;;;;;;;6.25;3.67;;;;;;;27.11;49.29;100802.69;4995313;28;20431;-59
2021/09/15 01:29:18;;;;;;;6.53;3.40;;;;;;;27.10;49.76;100801.03;4994996;28;20026;-59
2021/09/15 01:31:57;;;;;;;6.55;3.65;;;;;;;27.07;49.51;100796.03;4996116;28;20434;-59
2021/09/15 01:34:23;;;;;;;9.73;3.80;;;;;;;27.05;49.24;100803.66;4995950;28;20026;-59
2021/09/15 01:36:48;;;;;;;8.27;4.57;;;;;;;27.01;49.81;100805.22;4996016;28;20069;-59
2021/09/15 01:39:14;;;;;;;6.10;3.50;;;;;;;27.01;49.70;100793.38;4995827;28;20030;-59
2021/09/15 01:41:39;;;;;;;6.50;4.10;;;;;;;26.96;49.42;100788.59;4994398;28;20027;-59
2021/09/15 01:44:05;;;;;;;6.13;3.53;;;;;;;26.97;49.72;100790.25;4996104;28;20553;-59
2021/09/15 01:46:30;;;;;;;6.82;4.45;;;;;;;26.96;49.67;100794.09;4994863;28;20058;-59
2021/09/15 01:48:55;;;;;;;4.90;3.55;;;;;;;26.94;49.41;100793.47;4995806;28;20034;-59
2021/09/15 01:51:21;;;;;;;7.15;4.00;;;;;;;26.90;49.68;100789.53;4994412;28;20381;-59
2021/09/15 01:53:46;;;;;;;6.70;3.88;;;;;;;26.89;49.48;100787.84;4994256;28;20038;-59
2021/09/15 01:56:11;;;;;;;7.00;4.32;;;;;;;26.88;49.97;100788.09;4994249;28;20046;-59
2021/09/15 01:58:37;;;;;;;5.13;4.10;;;;;;;26.85;50.42;100772.91;4995292;28;20066;-60
2021/09/15 02:01:02;;;;;;;7.20;4.38;;;;;;;26.80;50.10;100771.97;4995525;28;20034;-59
2021/09/15 02:03:28;;;;;;;6.78;4.05;;;;;;;26.81;49.71;100770.88;4995379;28;20039;-59
2021/09/15 02:05:53;;;;;;;9.48;4.57;;;;;;;26.78;49.96;100771.31;4994422;28;20105;-59
2021/09/15 02:08:19;;;;;;;7.68;4.43;;;;;;;26.75;50.50;100778.13;4995475;28;20053;-59
2021/09/15 02:10:44;;;;;;;6.70;4.47;;;;;;;26.72;50.52;100775.03;4995509;28;20041;-59
2021/09/15 02:13:09;;;;;;;6.10;4.38;;;;;;;26.70;50.65;100780.75;4995249;28;20081;-59
2021/09/15 02:15:35;;;;;;;7.35;3.92;;;;;;;26.69;50.51;100781.81;4995411;28;20372;-59
2021/09/15 02:18:00;;;;;;;8.98;4.72;;;;;;;26.64;50.28;100776.19;4995226;28;20030;-59
2021/09/15 02:20:25;;;;;;;7.68;4.13;;;;;;;26.66;50.47;100776.81;4994323;28;20037;-60
2021/09/15 02:22:51;;;;;;;12.35;5.03;;;;;;;26.67;50.66;100778.47;4995156;28;20057;-60
2021/09/15 02:25:16;;;;;;;6.45;4.43;;;;;;;26.68;51.03;100773.81;4994145;28;20088;-58
2021/09/15 02:27:41;;;;;;;7.85;4.75;;;;;;;26.68;50.39;100773.81;4993811;28;20032;-59
2021/09/15 02:30:07;;;;;;;6.22;4.50;;;;;;;26.70;50.78;100772.50;4995110;28;20088;-59
2021/09/15 02:32:33;;;;;;;10.40;4.18;;;;;;;26.72;50.51;100769.53;4995125;28;20041;-62
2021/09/15 02:34:58;;;;;;;10.55;4.97;;;;;;;26.69;50.31;100757.06;4994955;28;20022;-61
2021/09/15 02:37:23;;;;;;;7.90;4.63;;;;;;;26.72;50.41;100764.84;4994902;28;20022;-59
2021/09/15 02:39:49;;;;;;;11.27;4.57;;;;;;;26.71;50.91;100757.69;4995123;28;20030;-59
2021/09/15 02:42:14;;;;;;;10.05;5.03;;;;;;;26.74;50.80;100759.13;4993556;28;20399;-59
2021/09/15 02:44:39;;;;;;;10.63;4.85;;;;;;;26.70;50.94;100753.25;4994833;28;20034;-59
2021/09/15 02:47:05;;;;;;;10.55;5.40;;;;;;;26.69;51.09;100754.31;4994863;28;20053;-59
2021/09/15 02:49:30;;;;;;;6.78;5.07;;;;;;;26.68;50.82;100762.81;4994774;28;20027;-59
2021/09/15 02:51:56;;;;;;;9.85;5.55;;;;;;;26.63;51.67;100759.94;4994489;28;20050;-59
2021/09/15 02:54:21;;;;;;;13.18;6.53;;;;;;;26.60;51.12;100755.75;4994494;28;20482;-60
2021/09/15 02:56:47;;;;;;;9.55;5.65;;;;;;;26.57;51.75;100756.22;4994677;28;20088;-59
2021/09/15 02:59:12;;;;;;;11.32;5.35;;;;;;;26.57;52.02;100750.72;4994439;28;20038;-59
2021/09/15 03:01:37;;;;;;;10.07;5.40;;;;;;;26.55;51.68;100761.09;4994279;28;20034;-62
2021/09/15 03:04:03;;;;;;;9.52;5.72;;;;;;;26.53;52.38;100750.34;4994593;28;20030;-62
2021/09/15 03:06:28;;;;;;;9.10;5.97;;;;;;;26.53;52.09;100752.25;4993440;28;20022;-62
2021/09/15 03:08:54;;;;;;;8.65;5.75;;;;;;;26.54;51.86;100756.69;4994406;28;20427;-62
2021/09/15 03:11:19;;;;;;;8.45;5.68;;;;;;;26.55;51.93;100753.69;4993368;28;20026;-61
2021/09/15 03:13:46;;;;;;;12.27;5.57;;;;;;;26.58;51.88;100755.13;4994182;28;20081;-62
2021/09/15 03:16:12;;;;;;;13.57;5.72;;;;;;;26.57;52.01;100754.31;4993048;28;20085;-61
2021/09/15 03:18:38;;;;;;;10.00;6.05;;;;;;;26.59;51.85;100751.31;4993178;28;20030;-62
2021/09/15 03:21:03;;;;;;;9.52;6.43;;;;;;;26.59;51.87;100748.56;4993283;28;20520;-62
2021/09/15 03:23:28;;;;;;;13.27;6.50;;;;;;;26.58;52.25;100747.72;4993349;28;20038;-62
2021/09/15 03:25:54;;;;;;;9.10;6.75;;;;;;;26.59;52.34;100743.06;4993302;28;20030;-59
2021/09/15 03:28:19;;;;;;;8.65;5.68;;;;;;;26.59;52.29;100726.59;4994173;28;20065;-59
2021/09/15 03:30:44;;;;;;;8.35;5.75;;;;;;;26.59;52.41;100723.84;4994136;28;20442;-59
2021/09/15 03:33:10;;;;;;;8.68;6.07;;;;;;;26.54;52.54;100719.06;4994212;28;20034;-59
2021/09/15 03:35:35;;;;;;;8.20;5.88;;;;;;;26.57;52.87;100717.75;4976842;28;20037;-59
2021/09/15 03:38:00;;;;;;;10.10;6.07;;;;;;;26.60;52.38;100717.28;4994206;28;20026;-59
2021/09/15 03:40:26;;;;;;;9.57;5.88;;;;;;;26.57;52.26;100695.75;4994180;28;20038;-59
2021/09/15 03:42:51;;;;;;;7.82;5.40;;;;;;;26.60;52.24;100707.09;4994222;28;20041;-59
2021/09/15 03:45:16;;;;;;;8.35;6.10;;;;;;;26.59;52.70;100710.94;4992987;28;20041;-59
2021/09/15 03:47:42;;;;;;;9.82;6.25;;;;;;;26.63;52.62;100717.63;4994408;28;20105;-59
2021/09/15 03:50:08;;;;;;;10.43;6.18;;;;;;;26.63;52.27;100705.81;4994094;28;20550;-59
2021/09/15 03:52:33;;;;;;;9.15;6.00;;;;;;;26.65;52.45;100711.91;4992917;28;20034;-59
2021/09/15 03:54:59;;;;;;;8.68;5.70;;;;;;;26.58;52.37;100702.91;4992745;28;20068;-59
2021/09/15 03:57:24;;;;;;;10.60;5.30;;;;;;;26.65;53.01;100709.16;4993968;28;20033;-59
2021/09/15 03:59:49;;;;;;;13.45;6.47;;;;;;;26.69;52.24;100704.84;4992676;28;20034;-59
2021/09/15 04:02:15;;;;;;;9.55;6.32;;;;;;;26.71;52.97;100707.38;4994183;28;20038;-59
2021/09/15 04:04:40;;;;;;;10.73;6.00;;;;;;;26.66;52.64;100707.25;4996492;28;20030;-59
2021/09/15 04:07:06;;;;;;;10.70;6.35;;;;;;;26.66;52.61;100721.84;4998029;28;20027;-59
2021/09/15 04:09:31;;;;;;;7.97;5.97;;;;;;;26.62;52.72;100726.13;4997752;28;20027;-59
2021/09/15 04:11:56;;;;;;;10.77;6.22;;;;;;;26.53;53.03;100722.88;4997548;28;20033;-61
2021/09/15 04:14:24;;;;;;;13.35;6.78;;;;;;;26.40;53.19;100712.09;4997962;28;20080;-61
2021/09/15 04:16:50;;;;;;;7.03;5.95;;;;;;;26.29;53.24;100712.06;4997574;28;20034;-60
2021/09/15 04:19:15;;;;;;;11.88;6.25;;;;;;;26.20;53.76;100729.94;4997271;28;20034;-60
2021/09/15 04:21:41;;;;;;;9.05;6.45;;;;;;;26.06;53.87;100718.28;4996632;28;20080;-60
2021/09/15 04:32:03;;;;;;;9.63;6.03;;;;;;;26.02;54.00;100719.81;4997136;28;20053;-62
2021/09/15 04:34:28;;;;;;;9.82;5.97;;;;;;;26.02;54.22;100731.63;4997407;28;20042;-62
2021/09/15 04:36:53;;;;;;;10.35;7.43;;;;;;;26.03;54.49;100716.84;4997187;28;20427;-62
2021/09/15 04:39:19;;;;;;;9.23;6.32;;;;;;;26.04;54.42;100715.78;4996849;28;20113;-61
2021/09/15 04:41:44;;;;;;;8.50;5.45;;;;;;;26.04;54.50;100710.28;4997172;28;20026;-62
2021/09/15 04:44:09;;;;;;;12.45;6.05;;;;;;;26.03;54.06;100711.34;4997548;28;20062;-62
2021/09/15 04:46:35;;;;;;;7.80;6.13;;;;;;;26.06;54.50;100721.03;4996873;28;20034;-62
2021/09/15 04:49:00;;;;;;;7.97;6.00;;;;;;;26.05;54.37;100720.19;4997044;28;20469;-62
2021/09/15 04:51:25;;;;;;;11.32;6.55;;;;;;;26.02;54.83;100706.06;4997151;28;20506;-62
2021/09/15 04:53:51;;;;;;;13.05;6.95;;;;;;;26.05;54.23;100722.94;4995510;28;20023;-62
2021/09/15 04:56:16;;;;;;;10.73;6.85;;;;;;;26.09;54.31;100711.47;4996634;28;20058;-62
2021/09/15 04:58:42;;;;;;;9.48;6.32;;;;;;;26.09;54.60;100708.75;4996591;28;20022;-61
2021/09/15 05:01:07;;;;;;;10.80;7.32;;;;;;;26.11;54.71;100712.06;4995700;28;20030;-61
2021/09/15 05:03:32;;;;;;;11.75;6.70;;;;;;;26.10;54.76;100704.94;4996539;28;20045;-62
2021/09/15 05:05:58;;;;;;;8.35;5.85;;;;;;;26.16;54.18;100699.34;4996769;28;20053;-61
2021/09/15 05:08:23;;;;;;;11.90;6.78;;;;;;;26.17;54.21;100708.44;4995717;28;20344;-62
2021/09/15 05:10:48;;;;;;;8.90;5.93;;;;;;;26.15;54.50;100707.84;4993472;28;20065;-59
2021/09/15 05:13:14;;;;;;;8.27;5.07;;;;;;;26.18;54.60;100697.22;4996207;28;20026;-62
2021/09/15 05:15:39;;;;;;;10.82;7.18;;;;;;;26.19;54.28;100698.03;4991649;28;20042;-61
2021/09/15 05:18:05;;;;;;;8.38;6.15;;;;;;;26.21;54.29;100701.41;4978595;28;20081;-61
2021/09/15 05:20:30;;;;;;;10.63;6.85;;;;;;;26.22;54.51;100692.94;4977046;28;20114;-62
2021/09/15 05:22:56;;;;;;;9.68;6.68;;;;;;;26.28;54.44;100691.16;4976990;28;20383;-61
2021/09/15 05:25:22;;;;;;;12.73;6.47;;;;;;;26.24;54.58;100676.22;4975908;28;20390;-61
2021/09/15 05:27:48;;;;;;;8.52;6.40;;;;;;;26.34;53.95;100696.56;4975369;28;20027;-61
2021/09/15 05:30:14;;;;;;;11.18;7.00;;;;;;;26.35;54.30;100697.41;4995691;28;20026;-61
2021/09/15 05:32:39;;;;;;;10.70;7.10;;;;;;;26.38;54.47;100691.44;4978360;28;20109;-62
2021/09/15 05:35:06;;;;;;;9.40;6.72;;;;;;;26.38;54.09;100705.16;4996004;28;20121;-61
2021/09/15 05:37:32;;;;;;;8.73;6.45;;;;;;;26.42;53.78;100709.09;4995950;28;20479;-61
2021/09/15 05:39:59;;;;;;;14.30;7.05;;;;;;;26.42;54.54;100709.09;4994965;28;20049;-61
2021/09/15 05:42:24;;;;;;;10.30;6.63;;;;;;;26.42;54.04;100709.09;4995623;28;20033;-62
2021/09/15 05:44:49;;;;;;;11.93;6.78;;;;;;;26.39;54.06;100709.56;4995739;28;20546;-61
2021/09/15 05:47:15;;;;;;;11.02;7.05;;;;;;;26.37;54.99;100712.56;4995973;28;20030;-61
2021/09/15 05:49:40;;;;;;;9.38;6.82;;;;;;;26.38;54.15;100718.91;4994412;28;20061;-61
2021/09/15 05:52:06;;;;;;;11.80;7.15;;;;;;;26.40;54.44;100727.75;4994682;28;20026;-61
2021/09/15 05:54:31;;;;;;;14.30;6.93;;;;;;;26.39;54.27;100715.06;4995414;28;20498;-62
2021/09/15 05:56:56;;;;;;;9.00;6.65;;;;;;;26.46;54.64;100732.31;4994381;28;20386;-62
2021/09/15 05:59:22;;;;;;;13.48;7.47;;;;;;;26.49;54.01;100734.59;4995279;28;20060;-62
2021/09/15 06:01:47;;;;;;;10.88;6.68;;;;;;;26.51;54.02;100733.28;4995450;28;20030;-62
2021/09/15 06:04:12;;;;;;;11.18;7.32;;;;;;;26.50;54.40;100722.50;4995655;28;20026;-62
2021/09/15 06:06:38;;;;;;;10.32;7.22;;;;;;;26.50;54.20;100728.00;4995544;28;20027;-62
2021/09/15 06:09:03;;;;;;;10.05;7.22;;;;;;;26.48;54.07;100722.75;4995735;28;20026;-62
2021/09/15 06:11:28;;;;;;;10.40;7.22;;;;;;;26.46;54.04;100726.81;4995855;28;20464;-62
2021/09/15 06:13:54;;;;;;;11.30;6.65;;;;;;;26.42;54.71;100731.94;4995391;28;20034;-63
2021/09/15 06:16:23;;;;;;;14.30;7.68;;;;;;;26.33;54.84;100730.56;4995421;28;20497;-63
2021/09/15 06:18:49;;;;;;;15.23;8.23;;;;;;;26.26;55.08;100734.50;4994214;28;20510;-63
2021/09/15 06:21:14;;;;;;;11.45;7.28;;;;;;;26.21;55.40;100728.88;4995249;28;20057;-62
2021/09/15 06:23:40;;;;;;;9.30;6.53;;;;;;;26.10;55.30;100721.41;4995181;28;20083;-63
2021/09/15 06:26:05;;;;;;;10.63;6.57;;;;;;;26.16;55.45;100731.50;4995040;28;20501;-62
2021/09/15 06:28:31;;;;;;;9.80;6.97;;;;;;;26.14;55.19;100728.13;4993462;28;20027;-62
2021/09/15 06:30:57;;;;;;;8.30;6.05;;;;;;;26.15;55.00;100729.81;4995181;28;20037;-62
2021/09/15 06:33:23;;;;;;;8.68;5.93;;;;;;;26.15;55.08;100729.81;4994105;28;20153;-60
2021/09/15 06:35:49;;;;;;;10.80;6.13;;;;;;;26.10;55.17;100729.66;4995208;28;20491;-59
2021/09/15 06:38:14;;;;;;;6.78;5.57;;;;;;;26.14;55.43;100728.13;4994240;28;20061;-61
2021/09/15 06:40:40;;;;;;;11.57;6.15;;;;;;;26.14;55.62;100722.63;4994999;28;20046;-62
2021/09/15 06:43:06;;;;;;;11.50;6.25;;;;;;;26.17;55.05;100719.41;4995280;28;20029;-61
2021/09/15 06:45:32;;;;;;;9.68;5.55;;;;;;;26.22;55.54;100730.53;4995534;28;20522;-61
2021/09/15 06:47:57;;;;;;;20.02;6.15;;;;;;;26.25;55.31;100741.06;4994546;28;20058;-63
2021/09/15 06:50:23;;;;;;;9.60;6.28;;;;;;;26.30;55.40;100725.56;4994050;28;20030;-61
2021/09/15 06:52:48;;;;;;;8.27;5.78;;;;;;;26.33;55.42;100727.00;4994836;28;20073;-62
2021/09/15 06:55:14;;;;;;;11.68;6.22;;;;;;;26.38;54.67;100736.19;4993611;28;20060;-59
2021/09/15 06:57:39;;;;;;;11.93;6.85;;;;;;;26.43;55.30;100736.34;4994970;28;20037;-58
2021/09/15 07:00:06;;;;;;;11.40;6.90;;;;;;;26.50;54.84;100738.97;4994920;28;20057;-59
2021/09/15 07:02:32;;;;;;;13.13;7.63;;;;;;;26.51;54.99;100735.19;4994765;28;20026;-59
2021/09/15 07:04:58;;;;;;;12.50;6.47;;;;;;;26.58;55.01;100741.38;4993650;28;20089;-59
2021/09/15 07:07:23;;;;;;;15.52;6.72;;;;;;;26.62;54.84;100737.09;4994726;28;20110;-59
2021/09/15 07:09:49;;;;;;;10.10;6.78;;;;;;;26.66;54.97;100743.81;4993441;28;20105;-59
2021/09/15 07:12:14;;;;;;;12.73;6.40;;;;;;;26.67;55.03;100742.72;4994851;28;20049;-59
2021/09/15 07:14:39;;;;;;;10.38;6.03;;;;;;;26.73;54.10;100747.28;4995096;28;20030;-59
2021/09/15 07:17:05;;;;;;;10.15;5.85;;;;;;;26.77;54.57;100744.91;4993460;28;20033;-59
2021/09/15 07:19:30;;;;;;;9.32;6.00;;;;;;;26.81;55.21;100757.97;4994311;28;20088;-59
2021/09/15 07:21:55;;;;;;;12.13;5.85;;;;;;;26.85;54.24;100745.44;4994811;28;20157;-59
2021/09/15 07:24:21;;;;;;;9.70;5.30;;;;;;;26.85;54.52;100747.34;4994603;28;20038;-59
2021/09/15 07:26:46;;;;;;;14.48;6.75;;;;;;;26.87;53.85;100746.03;4994382;28;20062;-59
2021/09/15 07:29:11;;;;;;;12.18;6.28;;;;;;;26.92;54.26;100751.63;4994611;28;20101;-59
2021/09/15 07:31:41;;;;;;;12.68;5.47;;;;;;;26.95;54.66;100753.91;4994613;28;20065;-59
2021/09/15 07:34:06;;;;;;;6.63;4.82;;;;;;;26.96;54.74;100761.09;4994510;28;20546;-59
2021/09/15 07:36:33;;;;;;;11.25;5.30;;;;;;;26.84;54.62;100741.00;4994545;28;20026;-59
2021/09/15 07:38:58;;;;;;;7.70;4.32;;;;;;;26.93;54.84;100752.47;4995008;28;20034;-59
2021/09/15 07:41:25;;;;;;;8.57;4.55;;;;;;;26.95;54.76;100758.56;4999124;28;20032;-58
2021/09/15 07:43:50;;;;;;;12.57;5.72;;;;;;;26.97;54.31;100772.91;4998450;28;20141;-58
2021/09/15 07:46:21;;;;;;;8.27;4.68;;;;;;;26.94;54.44;100752.22;4998316;28;20526;-62
2021/09/15 07:48:46;;;;;;;9.07;5.13;;;;;;;27.07;54.94;100764.94;4998327;28;20026;-61
2021/09/15 07:51:11;;;;;;;6.43;5.32;;;;;;;27.12;53.97;100770.53;4998381;28;20422;-59
2021/09/15 07:53:37;;;;;;;7.05;5.65;;;;;;;27.16;54.13;100772.56;4998290;28;20463;-59
2021/09/15 07:56:02;;;;;;;7.38;4.88;;;;;;;27.21;53.88;100774.63;4997969;28;20053;-59
2021/09/15 07:58:27;;;;;;;12.60;5.38;;;;;;;27.25;53.82;100774.97;4998240;28;20038;-59
2021/09/15 08:00:53;;;;;;;11.82;5.97;;;;;;;27.27;54.41;100767.31;4998202;28;20061;-59
2021/09/15 08:03:18;;;;;;;8.73;5.70;;;;;;;27.30;54.51;100772.34;4998174;28;20459;-58
2021/09/15 08:05:43;;;;;;;13.18;5.97;;;;;;;27.28;54.49;100769.81;4998095;28;20371;-59
2021/09/15 08:08:12;;;;;;;12.30;6.28;;;;;;;27.34;54.49;100774.38;4998201;28;20027;-59
2021/09/15 08:10:37;;;;;;;13.98;6.57;;;;;;;27.32;54.50;100776.53;4998126;28;20482;-59
2021/09/15 08:13:02;;;;;;;10.48;6.53;;;;;;;27.34;53.78;100779.88;4997795;28;20027;-59
2021/09/15 08:15:28;;;;;;;9.95;6.65;;;;;;;27.36;53.46;100777.69;4997936;28;20026;-59
2021/09/15 08:17:54;;;;;;;9.90;6.90;;;;;;;27.36;54.06;100782.38;4996939;28;20491;-59
2021/09/15 08:20:20;;;;;;;13.77;6.57;;;;;;;27.35;53.79;100780.72;4997853;28;20088;-59
2021/09/15 08:22:45;;;;;;;10.35;7.38;;;;;;;27.34;53.82;100785.38;4997900;28;20368;-59
2021/09/15 08:25:10;;;;;;;14.80;7.28;;;;;;;27.35;53.65;100792.56;4997794;28;20169;-59
2021/09/15 08:27:36;;;;;;;10.68;6.93;;;;;;;27.35;53.80;100791.72;4997605;28;20030;-59
2021/09/15 08:30:01;;;;;;;11.60;6.72;;;;;;;27.34;53.90;100799.13;4997514;28;20022;-59
2021/09/15 08:32:27;;;;;;;12.20;6.93;;;;;;;27.32;53.67;100797.69;4997505;28;20054;-59
2021/09/15 08:34:52;;;;;;;13.55;6.97;;;;;;;27.25;53.79;100799.75;4997620;28;20023;-65
2021/09/15 08:37:17;;;;;;;11.32;7.03;;;;;;;27.14;54.57;100796.72;4980283;28;20128;-69
2021/09/15 08:39:43;;;;;;;16.17;8.35;;;;;;;27.04;54.08;100795.66;4995996;28;20073;-67
2021/09/15 08:42:08;;;;;;;10.95;6.78;;;;;;;26.98;54.58;100786.44;4996089;28;20026;-63
2021/09/15 08:44:33;;;;;;;13.05;7.00;;;;;;;26.94;55.51;100782.47;4997725;28;20030;-62
2021/09/15 08:46:59;;;;;;;13.70;7.07;;;;;;;26.94;54.78;100785.22;4995895;28;20030;-63
2021/09/15 08:49:26;;;;;;;9.70;6.15;;;;;;;26.98;54.81;100780.94;4995749;28;20023;-63
2021/09/15 08:51:52;;;;;;;10.57;6.90;;;;;;;27.01;55.33;100777.72;4996252;28;20022;-62
2021/09/15 08:54:17;;;;;;;11.75;6.32;;;;;;;27.12;54.85;100776.88;4996717;28;20041;-62
2021/09/15 08:56:43;;;;;;;10.13;6.43;;;;;;;27.17;54.63;100768.75;4997035;28;20646;-62
2021/09/15 08:59:09;;;;;;;11.95;6.38;;;;;;;27.26;54.86;100765.63;4996796;28;20034;-62
2021/09/15 09:01:34;;;;;;;8.65;6.68;;;;;;;27.36;55.27;100772.19;4996948;28;20041;-61
2021/09/15 09:03:59;;;;;;;9.00;5.85;;;;;;;27.48;54.83;100770.31;4979358;28;20403;-62
2021/09/15 09:06:28;;;;;;;9.65;5.57;;;;;;;27.61;54.31;100780.25;4996953;28;20034;-61
2021/09/15 09:08:55;;;;;;;9.55;7.13;;;;;;;27.73;55.19;100778.28;4996232;28;20026;-61
2021/09/15 09:11:27;;;;;;;9.07;6.05;;;;;;;27.79;55.36;100771.81;4997903;28;20026;-61
2021/09/15 09:13:55;;;;;;;8.68;6.10;;;;;;;27.82;55.32;100765.81;4999561;28;20033;-61
2021/09/15 09:16:35;;;;;;;9.43;6.60;;;;;;;27.86;54.45;100780.78;4998222;28;20054;-61
2021/09/15 09:19:05;;;;;;;10.95;7.03;;;;;;;27.90;54.58;100790.22;4997928;28;20026;-61
2021/09/15 09:21:33;;;;;;;9.35;6.25;;;;;;;27.98;55.17;100791.75;4997908;28;20054;-61
2021/09/15 09:24:00;;;;;;;10.52;6.18;;;;;;;28.01;54.63;100783.84;4997124;28;20101;-59
2021/09/15 09:26:43;;;;;;;9.02;6.18;;;;;;;28.15;54.18;100788.00;4998041;28;20452;-62
2021/09/15 09:29:14;;;;;;;11.75;6.68;;;;;;;28.21;54.86;100784.28;4997819;28;20022;-59
2021/09/15 09:31:40;;;;;;;9.27;7.10;;;;;;;28.30;54.71;100796.59;4996183;28;20080;-58
2021/09/15 09:34:05;;;;;;;9.43;5.70;;;;;;;28.28;54.92;100798.72;4997084;28;20423;-59
2021/09/15 09:36:31;;;;;;;7.90;6.07;;;;;;;28.38;54.85;100803.63;4998787;28;20030;-59
2021/09/15 09:38:56;;;;;;;8.20;5.68;;;;;;;28.48;54.08;100797.44;4997136;28;20022;-58
2021/09/15 09:41:22;;;;;;;8.65;5.65;;;;;;;28.55;53.36;100811.94;4995473;28;20050;-59
2021/09/15 09:43:52;;;;;;;11.05;6.80;;;;;;;28.48;54.60;100802.94;4996886;28;20106;-59
2021/09/15 09:46:28;;;;;;;9.25;7.25;;;;;;;28.49;53.57;100815.66;4996617;28;20037;-60
2021/09/15 09:48:55;;;;;;;8.98;6.20;;;;;;;28.48;53.48;100816.75;4995606;28;20102;-59
2021/09/15 09:51:22;;;;;;;8.20;6.10;;;;;;;28.55;54.26;100820.19;4996706;28;20135;-59
2021/09/15 09:53:51;;;;;;;9.15;6.53;;;;;;;28.58;53.19;100814.19;4995332;28;20026;-59
2021/09/15 09:56:16;;;;;;;9.77;6.63;;;;;;;28.70;53.29;100809.50;4990832;28;20558;-59
2021/09/15 09:58:46;;;;;;;11.32;6.95;;;;;;;28.84;53.57;100808.06;4995997;28;20109;-58
2021/09/15 10:01:16;;;;;;;11.00;7.10;;;;;;;28.94;53.05;100807.41;4995914;28;20080;-59
2021/09/15 10:03:43;;;;;;;10.98;7.00;;;;;;;28.96;53.27;100817.09;4995173;28;20037;-59
2021/09/15 10:06:08;;;;;;;10.38;6.82;;;;;;;28.91;52.89;100819.78;4995194;28;20030;-59
2021/09/15 10:08:34;;;;;;;11.88;8.18;;;;;;;28.84;53.63;100825.44;4997859;28;20490;-59
2021/09/15 10:10:59;;;;;;;11.25;7.80;;;;;;;28.82;53.43;100819.34;4996950;28;20026;-58
2021/09/15 10:13:25;;;;;;;11.57;7.57;;;;;;;28.86;53.83;100820.53;4995012;28;20037;-59
2021/09/15 10:15:53;;;;;;;13.38;7.90;;;;;;;28.90;53.62;100823.63;4996240;28;20414;-59
2021/09/15 10:18:20;;;;;;;13.98;8.50;;;;;;;28.94;52.96;100824.81;4994722;28;20022;-58
2021/09/15 10:20:51;;;;;;;12.63;7.57;;;;;;;28.99;53.01;100821.28;4995552;28;20050;-58
2021/09/15 10:23:35;;;;;;;14.52;7.75;;;;;;;29.07;52.86;100821.69;4995789;28;20109;-59
2021/09/15 10:26:35;;;;;;;12.55;8.85;;;;;;;29.15;53.09;100832.31;4995294;28;20026;-59
2021/09/15 10:29:19;;;;;;;12.60;8.65;;;;;;;29.15;52.59;100831.47;4995324;28;20498;-60
2021/09/15 10:32:04;;;;;;;16.45;8.70;;;;;;;29.27;52.24;100832.28;4995035;28;20033;-59
2021/09/15 10:34:41;;;;;;;14.65;9.00;;;;;;;29.62;51.61;100830.03;4995203;28;20390;-59
2021/09/15 10:37:26;;;;;;;15.50;9.18;;;;;;;29.79;52.04;100830.00;4995284;28;20550;-59
2021/09/15 10:39:52;;;;;;;13.65;8.93;;;;;;;29.81;51.57;100825.09;4994929;28;20061;-59
2021/09/15 10:42:38;;;;;;;17.80;10.57;;;;;;;29.75;52.26;100831.59;4995268;28;20049;-59
2021/09/15 10:45:13;;;;;;;15.68;9.98;;;;;;;29.69;51.64;100827.94;4995186;28;20506;-60
2021/09/15 10:47:53;;;;;;;15.57;9.90;;;;;;;29.69;51.69;100830.72;4993798;28;20041;-59
2021/09/15 10:50:28;;;;;;;19.90;10.52;;;;;;;29.68;51.67;100828.19;4993702;28;20390;-58
2021/09/15 10:53:08;;;;;;;18.15;10.48;;;;;;;29.70;52.20;100823.25;4995134;28;20027;-59
2021/09/15 10:55:41;;;;;;;17.70;11.18;;;;;;;29.71;51.96;100825.75;4995000;28;20042;-59
2021/09/15 10:58:12;;;;;;;19.73;12.48;;;;;;;29.76;51.26;100825.00;4994963;28;20033;-59
2021/09/15 11:00:49;;;;;;;22.70;12.77;;;;;;;29.77;51.84;100821.13;4994630;28;20030;-60
2021/09/15 11:03:23;;;;;;;18.50;12.70;;;;;;;29.75;51.17;100823.31;4994802;28;20026;-58
2021/09/15 11:05:49;;;;;;;21.40;12.43;;;;;;;29.75;51.74;100815.03;4994664;28;20034;-59
2021/09/15 11:08:40;;;;;;;22.25;12.05;;;;;;;29.73;51.65;100815.28;4994971;28;20023;-60
2021/09/15 11:11:31;;;;;;;20.20;13.23;;;;;;;29.71;50.82;100808.34;4994728;28;20018;-59
2021/09/15 11:13:57;;;;;;;20.58;14.30;;;;;;;29.71;51.78;100813.88;4993975;28;20023;-58
2021/09/15 11:16:22;;;;;;;21.23;12.75;;;;;;;29.70;51.24;100806.69;4994746;28;20026;-59
2021/09/15 11:19:01;;;;;;;20.20;13.75;;;;;;;29.69;51.28;100807.75;4994657;28;20026;-58
2021/09/15 11:21:29;;;;;;;20.85;13.52;;;;;;;29.60;51.73;100818.41;4994503;28;20483;-59
2021/09/15 11:24:00;;;;;;;20.27;12.77;;;;;;;29.58;51.82;100814.25;4994902;28;20034;-59
2021/09/15 11:26:41;;;;;;;21.17;13.35;;;;;;;29.57;51.60;100818.91;4994659;28;20026;-59
2021/09/15 11:29:06;;;;;;;21.77;13.27;;;;;;;29.54;51.92;100818.63;4994576;28;20435;-59